This is the latest recevied weather packets stored in our database for station/object YD2APR-13. If no packets are shown the sender has not sent any weather packets the latest 10 day(s).
| Time | Temp. | Humidity | Pressure | Rain* | Wind** | Luminosity | Snow |
|---|---|---|---|---|---|---|---|
| 1777968741 | 32.22° C | 56% | 1013.1 hPa | - | - | - | - |
| 1777968141 | 31.67° C | 59% | 1013 hPa | - | - | - | - |
| 1777967540 | 31.11° C | 61% | 1013 hPa | - | - | - | - |
| 1777966940 | 32.22° C | 58% | 1013.1 hPa | - | - | - | - |
| 1777966340 | 32.22° C | 56% | 1013.2 hPa | - | - | - | - |
| 1777965741 | 33.89° C | 53% | 1013.3 hPa | - | - | - | - |
| 1777965140 | 33.89° C | 53% | 1013.5 hPa | - | - | - | - |
| 1777964540 | 33.33° C | 54% | 1013.6 hPa | - | - | - | - |
| 1777963940 | 33.33° C | 55% | 1013.7 hPa | - | - | - | - |
| 1777963340 | 32.78° C | 56% | 1013.7 hPa | - | - | - | - |
| 1777962740 | 32.78° C | 57% | 1013.9 hPa | - | - | - | - |
| 1777962140 | 34.44° C | 53% | 1014.2 hPa | - | - | - | - |
| 1777961540 | 33.89° C | 53% | 1014.3 hPa | - | - | - | - |
| 1777960940 | 35° C | 51% | 1014.4 hPa | - | - | - | - |
| 1777960340 | 35° C | 50% | 1014.5 hPa | - | - | - | - |
| 1777959740 | 34.44° C | 52% | 1014.7 hPa | - | - | - | - |
| 1777959713 | 34.44° C | 52% | 1014.7 hPa | - | - | - | - |
| 1777959677 | 34.44° C | 52% | 1014.7 hPa | - | - | - | - |
| 1777959420 | 34.44° C | 52% | 1014.7 hPa | - | - | - | - |
| 1777958820 | 33.33° C | 55% | 1014.7 hPa | - | - | - | - |
| 1777958219 | 33.33° C | 56% | 1014.8 hPa | - | - | - | - |
| 1777957619 | 32.22° C | 57% | 1014.9 hPa | - | - | - | - |
| 1777957019 | 33.33° C | 57% | 1015.1 hPa | - | - | - | - |
| 1777956419 | 33.33° C | 56% | 1015.4 hPa | - | - | - | - |
| 1777955819 | 33.89° C | 56% | 1015.6 hPa | - | - | - | - |
* Rain since midnight (hover to see other rain measurements)
** Current wind speed in m/s (hover to see current wind gust speed)